createdAt,value
2018-07-19T00:01:05.919Z,96.60
2018-07-19T00:03:38.331Z,96.70
2018-07-19T00:06:10.744Z,96.70
2018-07-19T00:08:44.949Z,96.70
2018-07-19T00:11:17.377Z,96.60
2018-07-19T00:13:49.851Z,96.60
2018-07-19T00:16:22.507Z,96.90
2018-07-19T00:18:54.918Z,96.60
2018-07-19T00:21:27.342Z,96.60
2018-07-19T00:23:59.712Z,96.50
2018-07-19T00:26:32.454Z,96.60
2018-07-19T00:29:04.949Z,96.80
2018-07-19T00:31:37.386Z,96.80
2018-07-19T00:34:09.802Z,97.10
2018-07-19T00:36:42.199Z,96.90
2018-07-19T00:39:14.603Z,96.90
2018-07-19T00:44:19.421Z,96.90
2018-07-19T00:46:51.821Z,98.60
2018-07-19T00:49:24.268Z,97.10
2018-07-19T00:51:56.911Z,98.10
2018-07-19T00:54:29.298Z,99.50
2018-07-19T00:57:01.706Z,97.40
2018-07-19T00:59:34.149Z,97.30
2018-07-19T01:02:07.060Z,97.40
2018-07-19T01:04:39.435Z,97.30
2018-07-19T01:07:11.872Z,97.40
2018-07-19T01:09:44.381Z,97.40
2018-07-19T01:12:16.933Z,97.40
2018-07-19T01:14:49.359Z,97.50
2018-07-19T01:19:54.323Z,97.40
2018-07-19T01:22:26.744Z,97.70
2018-07-19T01:24:59.142Z,97.70
2018-07-19T01:27:31.524Z,97.80
2018-07-19T01:30:04.591Z,97.80
2018-07-19T01:32:37.069Z,97.90
2018-07-19T01:35:09.590Z,98.00
2018-07-19T01:40:14.455Z,99.90
2018-07-19T01:42:47.198Z,99.30
2018-07-19T01:45:19.878Z,99.30
2018-07-19T01:47:52.229Z,99.40
2018-07-19T01:50:24.682Z,99.60
2018-07-19T01:52:57.082Z,99.90
2018-07-19T01:55:29.533Z,99.90
2018-07-19T01:58:01.969Z,99.40
2018-07-19T02:00:34.376Z,99.90
2018-07-19T02:03:06.765Z,99.90
2018-07-19T02:05:39.177Z,99.90
2018-07-19T02:08:11.596Z,99.90
2018-07-19T02:10:44.702Z,99.90
2018-07-19T02:13:17.069Z,99.90
2018-07-19T02:15:49.521Z,99.90
2018-07-19T02:20:54.489Z,99.90
2018-07-19T02:33:36.542Z,99.90
2018-07-19T02:36:08.978Z,99.90
2018-07-19T02:38:41.394Z,99.80
2018-07-19T02:41:13.817Z,99.90
2018-07-19T02:43:46.228Z,99.90
2018-07-19T02:46:18.820Z,99.90
2018-07-19T02:48:51.310Z,99.90
2018-07-19T02:51:24.689Z,99.90
2018-07-19T02:53:57.141Z,99.90
2018-07-19T02:56:29.552Z,99.90
2018-07-19T02:59:02.232Z,99.90
2018-07-19T03:01:34.755Z,99.90
2018-07-19T03:04:07.245Z,99.90
2018-07-19T03:11:44.560Z,99.90
2018-07-19T03:14:16.991Z,99.90
2018-07-19T03:16:49.622Z,99.90
2018-07-19T03:19:22.030Z,99.90
2018-07-19T03:21:54.529Z,99.90
2018-07-19T03:26:59.484Z,99.90
2018-07-19T03:29:31.920Z,99.90
2018-07-19T03:32:04.491Z,99.90
2018-07-19T03:34:36.868Z,99.90
2018-07-19T03:37:09.330Z,99.90
2018-07-19T03:39:41.722Z,99.90
2018-07-19T03:42:14.151Z,99.90
2018-07-19T03:44:46.508Z,99.90
2018-07-19T03:47:18.932Z,99.90
2018-07-19T03:49:51.546Z,99.90
2018-07-19T03:52:24.546Z,99.90
2018-07-19T03:57:29.798Z,99.90
2018-07-19T04:00:02.283Z,99.90
2018-07-19T04:02:34.678Z,99.90
2018-07-19T04:05:07.113Z,99.90
2018-07-19T04:07:39.522Z,99.90
2018-07-19T04:10:11.896Z,99.90
2018-07-19T04:12:46.088Z,99.90
2018-07-19T04:15:18.515Z,99.90
2018-07-19T04:17:56.528Z,99.90
2018-07-19T04:20:30.975Z,99.90
2018-07-19T04:23:03.726Z,99.90
2018-07-19T04:25:36.453Z,99.90
2018-07-19T04:28:09.013Z,99.90
2018-07-19T04:30:41.848Z,99.90
2018-07-19T04:33:14.715Z,99.90
2018-07-19T04:35:47.402Z,99.90
2018-07-19T04:38:20.156Z,99.90
2018-07-19T04:40:52.786Z,99.90
2018-07-19T04:43:25.318Z,99.90
2018-07-19T04:45:58.189Z,99.90
2018-07-19T04:48:31.040Z,99.90
2018-07-19T04:51:03.503Z,99.90
2018-07-19T04:53:36.263Z,99.90
2018-07-19T04:56:08.780Z,99.90
2018-07-19T04:58:41.188Z,99.90
2018-07-19T05:01:13.674Z,99.90
2018-07-19T05:08:52.393Z,99.90
2018-07-19T05:11:24.963Z,99.90
2018-07-19T05:13:57.393Z,99.90
2018-07-19T05:16:29.800Z,99.90
2018-07-19T05:19:02.809Z,99.90
2018-07-19T05:21:35.368Z,99.90
2018-07-19T05:24:08.134Z,99.90
2018-07-19T05:26:40.551Z,99.90
2018-07-19T05:29:12.991Z,99.90
2018-07-19T05:31:45.390Z,99.90
2018-07-19T05:34:17.958Z,99.90
2018-07-19T05:36:50.599Z,99.90
2018-07-19T05:44:28.205Z,99.90
2018-07-19T05:47:00.712Z,99.90
2018-07-19T05:57:10.797Z,99.90
2018-07-19T05:59:43.209Z,99.90
2018-07-19T06:02:15.628Z,99.90
2018-07-19T06:04:48.069Z,99.90
2018-07-19T06:07:20.512Z,99.90
2018-07-19T06:09:52.950Z,99.90
2018-07-19T06:12:25.391Z,99.90
2018-07-19T06:14:58.108Z,99.90
2018-07-19T06:17:30.942Z,99.90
2018-07-19T06:20:04.062Z,99.90
2018-07-19T06:22:36.893Z,99.90
2018-07-19T06:25:09.346Z,99.90
2018-07-19T06:27:42.015Z,99.90
2018-07-19T06:30:14.464Z,99.90
2018-07-19T06:32:46.990Z,99.90
2018-07-19T06:35:19.817Z,99.90
2018-07-19T06:37:52.545Z,99.90
2018-07-19T06:40:25.685Z,99.90
2018-07-19T06:42:58.849Z,99.90
2018-07-19T06:45:31.617Z,99.90
2018-07-19T06:48:04.373Z,99.90
2018-07-19T06:50:36.878Z,99.90
2018-07-19T06:53:09.305Z,99.90
2018-07-19T06:55:41.816Z,99.90
2018-07-19T06:58:14.583Z,99.90
2018-07-19T07:00:47.094Z,99.90
2018-07-19T07:03:19.522Z,99.90
2018-07-19T07:05:51.957Z,99.90
2018-07-19T07:08:24.485Z,99.90
2018-07-19T07:10:57.011Z,99.90
2018-07-19T07:13:29.542Z,99.90
2018-07-19T07:16:02.261Z,99.90
2018-07-19T07:18:34.724Z,99.90
2018-07-19T07:21:07.285Z,99.90
2018-07-19T07:23:39.676Z,99.90
2018-07-19T07:26:12.274Z,99.90
2018-07-19T07:28:44.766Z,99.90
2018-07-19T07:31:17.186Z,99.90
2018-07-19T07:33:49.806Z,99.90
2018-07-19T07:36:22.344Z,99.90
2018-07-19T07:38:54.788Z,99.90
2018-07-19T07:41:27.213Z,99.90
2018-07-19T07:43:59.717Z,99.90
2018-07-19T07:46:32.150Z,99.90
2018-07-19T07:49:04.822Z,99.90
2018-07-19T07:51:37.266Z,99.90
2018-07-19T07:54:09.937Z,99.90
2018-07-19T07:56:42.418Z,99.90
2018-07-19T07:59:15.250Z,99.90
2018-07-19T08:01:47.840Z,99.90
2018-07-19T08:04:20.660Z,99.80
2018-07-19T08:06:53.491Z,99.90
2018-07-19T08:09:26.413Z,99.90
2018-07-19T08:11:59.416Z,99.90
2018-07-19T08:17:05.369Z,99.70
2018-07-19T08:19:38.019Z,99.90
2018-07-19T08:24:43.600Z,99.90
2018-07-19T08:27:16.120Z,99.90
2018-07-19T08:29:48.586Z,99.90
2018-07-19T08:32:21.053Z,99.90
2018-07-19T08:34:53.534Z,99.90
2018-07-19T08:37:26.042Z,99.90
2018-07-19T08:39:58.603Z,99.90
2018-07-19T08:42:31.027Z,99.70
2018-07-19T08:45:04.051Z,99.80
2018-07-19T08:47:36.512Z,99.70
2018-07-19T08:50:08.987Z,99.80
2018-07-19T08:52:41.497Z,99.80
2018-07-19T08:55:13.943Z,99.90
2018-07-19T08:57:47.974Z,99.90
2018-07-19T09:00:20.470Z,99.90
2018-07-19T09:02:52.951Z,99.90
2018-07-19T09:05:25.599Z,99.90
2018-07-19T09:07:58.000Z,99.90
2018-07-19T09:10:30.492Z,99.90
2018-07-19T09:13:03.074Z,99.90
2018-07-19T09:18:08.017Z,99.30
2018-07-19T09:20:40.465Z,99.60
2018-07-19T09:23:12.964Z,99.30
2018-07-19T09:25:45.634Z,99.20
2018-07-19T09:28:18.091Z,99.10
2018-07-19T09:30:50.755Z,99.30
2018-07-19T09:33:23.246Z,99.20
2018-07-19T09:35:55.711Z,99.20
2018-07-19T09:38:28.281Z,98.90
2018-07-19T09:41:00.684Z,99.10
2018-07-19T09:43:33.192Z,99.50
2018-07-19T09:48:38.104Z,98.50
2018-07-19T09:51:10.601Z,98.60
2018-07-19T09:53:43.103Z,98.60
2018-07-19T09:56:15.562Z,98.60
2018-07-19T09:58:48.057Z,98.60
2018-07-19T10:01:21.168Z,98.70
2018-07-19T10:03:53.842Z,98.50
2018-07-19T10:06:26.336Z,98.50
2018-07-19T10:08:58.895Z,98.00
2018-07-19T10:11:31.599Z,97.80
2018-07-19T10:14:04.123Z,98.00
2018-07-19T10:16:36.862Z,97.70
2018-07-19T10:19:09.351Z,97.60
2018-07-19T10:21:41.818Z,97.80
2018-07-19T10:24:14.291Z,97.60
2018-07-19T10:26:46.812Z,97.60
2018-07-19T10:29:19.239Z,97.20
2018-07-19T10:34:24.326Z,97.40
2018-07-19T10:36:57.017Z,97.20
2018-07-19T10:39:29.544Z,97.30
2018-07-19T10:42:02.021Z,97.20
2018-07-19T10:44:34.466Z,97.10
2018-07-19T10:47:06.922Z,97.10
2018-07-19T10:49:39.488Z,96.80
2018-07-19T10:52:11.947Z,96.90
2018-07-19T10:54:44.455Z,96.30
2018-07-19T10:57:17.360Z,96.60
2018-07-19T11:04:55.017Z,95.00
2018-07-19T11:07:27.496Z,95.50
2018-07-19T11:10:00.088Z,95.10
2018-07-19T11:12:32.564Z,95.10
2018-07-19T11:15:05.175Z,95.50
2018-07-19T11:17:37.576Z,95.10
2018-07-19T11:20:10.132Z,94.90
2018-07-19T11:22:42.766Z,95.00
2018-07-19T11:25:15.194Z,95.10
2018-07-19T11:27:47.613Z,94.70
2018-07-19T11:30:20.038Z,95.00
2018-07-19T11:32:52.439Z,95.20
2018-07-19T11:35:24.847Z,95.10
2018-07-19T11:37:57.282Z,95.10
2018-07-19T11:40:29.760Z,95.00
2018-07-19T11:43:02.237Z,95.00
2018-07-19T11:45:34.948Z,94.60
2018-07-19T11:48:07.328Z,94.30
2018-07-19T11:50:39.810Z,94.00
2018-07-19T11:53:12.313Z,94.00
2018-07-19T11:55:44.757Z,94.00
2018-07-19T11:58:17.190Z,93.90
2018-07-19T12:00:50.657Z,94.00
2018-07-19T12:03:22.991Z,94.30
2018-07-19T12:05:55.453Z,94.40
2018-07-19T12:08:27.840Z,94.30
2018-07-19T12:11:00.310Z,94.80
2018-07-19T12:13:32.723Z,95.60
2018-07-19T12:16:05.235Z,95.60
2018-07-19T12:18:37.635Z,95.80
2018-07-19T12:21:10.131Z,95.70
2018-07-19T12:23:42.515Z,95.40
2018-07-19T12:26:15.111Z,96.00
2018-07-19T12:28:47.553Z,95.40
2018-07-19T12:31:20.086Z,95.90
2018-07-19T12:33:52.462Z,95.20
2018-07-19T12:36:24.943Z,94.50
2018-07-19T12:38:57.439Z,94.90
2018-07-19T12:41:29.966Z,94.50
2018-07-19T12:44:02.441Z,94.50
2018-07-19T12:46:34.947Z,94.30
2018-07-19T12:49:07.710Z,94.30
2018-07-19T12:51:40.130Z,93.90
2018-07-19T12:54:12.622Z,93.70
2018-07-19T12:56:45.105Z,93.80
2018-07-19T12:59:18.521Z,93.60
2018-07-19T13:01:51.151Z,93.50
2018-07-19T13:04:23.865Z,93.80
2018-07-19T13:06:56.336Z,93.40
2018-07-19T13:09:28.935Z,93.40
2018-07-19T13:12:01.563Z,92.70
2018-07-19T13:14:34.083Z,92.90
2018-07-19T13:17:07.562Z,92.80
2018-07-19T13:19:40.177Z,92.70
2018-07-19T13:22:13.294Z,92.60
2018-07-19T13:24:45.808Z,92.50
2018-07-19T13:27:18.197Z,92.60
2018-07-19T13:29:50.663Z,92.20
2018-07-19T13:32:23.091Z,92.30
2018-07-19T13:34:55.595Z,91.90
2018-07-19T13:40:00.514Z,91.30
2018-07-19T13:42:33.024Z,92.00
2018-07-19T13:45:05.550Z,91.60
2018-07-19T13:47:38.538Z,91.70
2018-07-19T13:50:11.012Z,91.30
2018-07-19T13:52:55.030Z,90.80
2018-07-19T13:55:27.651Z,90.80
2018-07-19T13:58:00.950Z,90.10
2018-07-19T14:00:33.362Z,90.30
2018-07-19T14:03:05.837Z,90.40
2018-07-19T14:05:38.304Z,90.00
2018-07-19T14:08:10.874Z,90.20
2018-07-19T14:10:44.968Z,90.00
2018-07-19T14:13:17.828Z,89.30
2018-07-19T14:15:51.094Z,89.70
2018-07-19T14:18:23.720Z,89.10
2018-07-19T14:20:56.369Z,90.00
2018-07-19T14:26:05.067Z,99.90
2018-07-19T14:28:37.479Z,87.10
2018-07-19T14:31:10.165Z,86.90
2018-07-19T14:33:43.455Z,86.20
2018-07-19T14:36:15.914Z,85.00
2018-07-19T14:38:48.604Z,85.10
2018-07-19T14:41:21.142Z,83.60
2018-07-19T14:43:53.718Z,84.10
2018-07-19T14:46:27.021Z,84.10
2018-07-19T14:48:59.486Z,83.40
2018-07-19T14:51:32.000Z,84.10
2018-07-19T14:54:04.980Z,83.50
2018-07-19T14:56:37.426Z,84.30
2018-07-19T14:59:10.063Z,84.80
2018-07-19T15:01:42.882Z,84.70
2018-07-19T15:04:16.422Z,84.00
2018-07-19T15:06:48.970Z,84.40
2018-07-19T15:09:21.424Z,84.20
2018-07-19T15:11:53.920Z,85.60
2018-07-19T15:14:26.420Z,84.50
2018-07-19T15:16:58.931Z,83.10
2018-07-19T15:19:31.594Z,83.10
2018-07-19T15:22:04.193Z,83.10
2018-07-19T15:27:09.231Z,82.30
2018-07-19T15:29:41.679Z,81.50
2018-07-19T15:32:14.178Z,82.10
2018-07-19T15:34:46.900Z,82.80
2018-07-19T15:37:19.775Z,83.40
2018-07-19T15:39:52.189Z,83.20
2018-07-19T15:42:24.659Z,82.50
2018-07-19T15:44:57.087Z,81.30
2018-07-19T15:47:29.519Z,81.80
2018-07-19T15:50:02.031Z,81.20
2018-07-19T15:52:34.483Z,81.50
2018-07-19T15:55:07.021Z,79.40
2018-07-19T15:57:39.538Z,78.70
2018-07-19T16:00:12.155Z,77.60
2018-07-19T16:02:44.705Z,78.50
2018-07-19T16:05:17.228Z,78.00
2018-07-19T16:07:49.682Z,77.60
2018-07-19T16:10:22.150Z,75.80
2018-07-19T16:12:55.030Z,74.50
2018-07-19T16:15:27.425Z,74.20
2018-07-19T16:17:59.904Z,72.50
2018-07-19T16:20:32.596Z,72.50
2018-07-19T16:23:05.014Z,72.70
2018-07-19T16:25:38.567Z,73.70
2018-07-19T16:28:11.042Z,74.00
2018-07-19T16:30:43.519Z,74.40
2018-07-19T16:33:15.931Z,74.20
2018-07-19T16:35:48.418Z,74.60
2018-07-19T16:38:21.010Z,73.90
2018-07-19T16:40:53.541Z,75.00
2018-07-19T16:43:26.033Z,75.80
2018-07-19T16:45:59.674Z,75.40
2018-07-19T16:48:32.160Z,75.90
2018-07-19T16:51:04.728Z,75.90
2018-07-19T16:53:37.214Z,75.40
2018-07-19T16:58:42.057Z,75.60
2018-07-19T17:01:14.875Z,76.00
2018-07-19T17:03:47.360Z,75.60
2018-07-19T17:06:20.020Z,75.00
2018-07-19T17:08:52.477Z,74.80
2018-07-19T17:11:24.978Z,75.00
2018-07-19T17:13:57.428Z,74.80
2018-07-19T17:16:30.202Z,74.80
2018-07-19T17:19:03.386Z,75.00
2018-07-19T17:21:37.882Z,82.30
2018-07-19T17:24:10.352Z,96.10
2018-07-19T17:26:42.927Z,74.80
2018-07-19T17:29:15.795Z,76.70
2018-07-19T17:31:48.413Z,75.90
2018-07-19T17:34:20.990Z,75.40
2018-07-19T17:36:53.667Z,75.70
2018-07-19T17:39:26.412Z,75.80
2018-07-19T17:41:59.016Z,75.30
2018-07-19T17:44:31.574Z,75.90
2018-07-19T17:47:04.478Z,76.30
2018-07-19T17:49:37.167Z,76.70
2018-07-19T17:52:09.690Z,76.20
2018-07-19T17:54:42.470Z,76.40
2018-07-19T17:57:14.967Z,76.10
2018-07-19T17:59:47.444Z,76.10
2018-07-19T18:02:20.036Z,75.90
2018-07-19T18:07:25.717Z,75.60
2018-07-19T18:09:58.605Z,75.80
2018-07-19T18:12:31.216Z,75.90
2018-07-19T18:15:04.266Z,76.00
2018-07-19T18:17:36.997Z,76.30
2018-07-19T18:20:09.751Z,76.10
2018-07-19T18:22:42.770Z,76.80
2018-07-19T18:25:15.326Z,76.80
2018-07-19T18:27:48.831Z,77.10
2018-07-19T18:30:21.467Z,77.40
2018-07-19T18:32:54.381Z,77.00
2018-07-19T18:35:27.171Z,77.50
2018-07-19T18:38:00.032Z,77.70
2018-07-19T18:40:32.691Z,77.90
2018-07-19T18:43:06.965Z,78.10
2018-07-19T18:45:39.791Z,77.90
2018-07-19T18:48:12.526Z,78.30
2018-07-19T18:53:19.836Z,86.10
2018-07-19T18:55:52.350Z,78.60
2018-07-19T19:00:58.777Z,77.80
2018-07-19T19:06:04.766Z,79.00
2018-07-19T19:08:37.469Z,79.10
2018-07-19T19:11:10.875Z,79.20
2018-07-19T19:13:45.162Z,79.40
2018-07-19T19:16:17.810Z,79.40
2018-07-19T19:18:50.509Z,79.60
2018-07-19T19:21:23.365Z,79.70
2018-07-19T19:23:56.444Z,80.00
2018-07-19T19:26:29.417Z,80.20
2018-07-19T19:29:02.217Z,80.00
2018-07-19T19:31:35.015Z,79.90
2018-07-19T19:34:08.325Z,81.70
2018-07-19T19:39:13.783Z,80.20
2018-07-19T19:41:46.515Z,81.20
2018-07-19T19:44:18.977Z,81.40
2018-07-19T19:46:51.548Z,81.40
2018-07-19T19:49:24.492Z,81.00
2018-07-19T19:51:57.226Z,82.00
2018-07-19T19:54:29.801Z,92.80
2018-07-19T19:57:02.452Z,86.90
2018-07-19T19:59:35.078Z,82.90
2018-07-19T20:02:08.036Z,82.80
2018-07-19T20:04:40.757Z,91.00
2018-07-19T20:07:13.949Z,83.30
2018-07-19T20:09:46.865Z,83.60
2018-07-19T20:12:19.525Z,83.90
2018-07-19T20:14:52.327Z,83.90
2018-07-19T20:17:25.107Z,84.10
2018-07-19T20:19:57.866Z,84.60
2018-07-19T20:22:30.576Z,85.00
2018-07-19T20:25:03.341Z,85.00
2018-07-19T20:30:08.858Z,91.80
2018-07-19T20:35:14.363Z,95.20
2018-07-19T20:37:47.199Z,85.70
2018-07-19T20:42:52.636Z,85.30
2018-07-19T20:45:25.350Z,85.70
2018-07-19T20:50:30.788Z,85.10
2018-07-19T20:53:03.644Z,85.80
2018-07-19T20:55:36.620Z,86.00
2018-07-19T20:58:09.308Z,86.50
2018-07-19T21:00:41.910Z,86.70
2018-07-19T21:03:14.733Z,86.70
2018-07-19T21:05:47.328Z,86.40
2018-07-19T21:08:20.289Z,86.60
2018-07-19T21:10:53.012Z,86.60
2018-07-19T21:13:25.776Z,86.70
2018-07-19T21:15:58.578Z,87.70
2018-07-19T21:18:31.436Z,87.00
2018-07-19T21:21:04.387Z,87.30
2018-07-19T21:23:37.243Z,87.40
2018-07-19T21:26:10.047Z,87.60
2018-07-19T21:31:15.656Z,87.60
2018-07-19T21:36:21.018Z,87.90
2018-07-19T21:38:53.727Z,88.20
2018-07-19T21:41:26.274Z,88.60
2018-07-19T21:43:59.025Z,88.90
2018-07-19T21:46:31.719Z,89.10
2018-07-19T21:49:05.005Z,89.30
2018-07-19T21:51:37.696Z,89.60
2018-07-19T21:54:10.417Z,89.60
2018-07-19T21:56:43.062Z,90.10
2018-07-19T21:59:16.143Z,91.80
2018-07-19T22:01:48.760Z,96.80
2018-07-19T22:04:21.678Z,99.90
2018-07-19T22:06:54.550Z,90.30
2018-07-19T22:09:27.338Z,90.50
2018-07-19T22:12:00.278Z,90.50
2018-07-19T22:14:32.855Z,90.50
2018-07-19T22:17:05.804Z,90.60
2018-07-19T22:19:38.427Z,90.60
2018-07-19T22:22:11.135Z,90.30
2018-07-19T22:24:44.163Z,90.60
2018-07-19T22:27:17.034Z,90.50
2018-07-19T22:29:49.880Z,90.50
2018-07-19T22:32:22.818Z,90.50
2018-07-19T22:34:55.971Z,90.70
2018-07-19T22:37:28.760Z,90.70
2018-07-19T22:40:02.398Z,90.70
2018-07-19T22:42:55.813Z,91.00
2018-07-19T22:45:30.883Z,92.20
2018-07-19T22:48:03.892Z,90.90
2018-07-19T22:50:38.107Z,97.50
2018-07-19T22:53:11.638Z,90.80
2018-07-19T22:55:44.550Z,91.00
2018-07-19T22:58:17.342Z,99.90
2018-07-19T23:00:50.264Z,92.60
2018-07-19T23:03:23.138Z,96.40
2018-07-19T23:05:57.756Z,96.30
2018-07-19T23:08:30.638Z,91.00
2018-07-19T23:16:09.073Z,99.90
2018-07-19T23:18:41.922Z,99.90
2018-07-19T23:21:14.928Z,92.20
2018-07-19T23:23:47.557Z,91.40
2018-07-19T23:26:20.377Z,91.50
2018-07-19T23:28:53.272Z,92.00
2018-07-19T23:31:26.077Z,94.60
2018-07-19T23:44:30.466Z,99.90
2018-07-19T23:47:07.385Z,99.90
